createdAt,value
2023-03-31T00:01:30.496Z,99459.26
2023-03-31T00:04:36.588Z,99459.48
2023-03-31T00:07:49.735Z,99458.77
2023-03-31T00:11:01.525Z,99462.52
2023-03-31T00:14:08.012Z,99458.29
2023-03-31T00:17:24.533Z,99448.06
2023-03-31T00:20:53.037Z,99452.23
2023-03-31T00:24:00.316Z,99452.09
2023-03-31T00:27:06.503Z,99451.02
2023-03-31T00:30:12.873Z,99445.28
2023-03-31T00:33:21.324Z,99444.58
2023-03-31T00:36:31.893Z,99444.30
2023-03-31T00:39:43.403Z,99460.48
2023-03-31T00:42:52.099Z,99457.09
2023-03-31T00:46:04.857Z,99451.33
2023-03-31T00:49:32.620Z,99450.02
2023-03-31T00:53:00.612Z,99452.98
2023-03-31T00:56:12.772Z,99453.03
2023-03-31T00:59:18.924Z,99451.01
2023-03-31T01:02:29.041Z,99444.20
2023-03-31T01:05:47.406Z,99445.35
2023-03-31T01:09:07.084Z,99443.09
2023-03-31T01:12:12.823Z,99443.23
2023-03-31T01:15:18.398Z,99436.05
2023-03-31T01:18:29.212Z,99436.95
2023-03-31T01:22:05.659Z,99425.29
2023-03-31T01:25:53.493Z,99414.82
2023-03-31T01:29:05.900Z,99414.09
2023-03-31T01:32:27.821Z,99416.59
2023-03-31T01:36:04.330Z,99418.10
2023-03-31T01:40:02.075Z,99411.98
2023-03-31T01:43:35.550Z,99412.86
2023-03-31T01:46:48.362Z,99404.52
2023-03-31T01:50:06.017Z,99400.61
2023-03-31T01:53:16.668Z,99397.52
2023-03-31T01:56:47.675Z,99396.70
2023-03-31T02:00:09.088Z,99392.55
2023-03-31T02:03:24.340Z,99393.23
2023-03-31T02:07:00.824Z,99391.48
2023-03-31T02:10:28.388Z,99388.73
2023-03-31T02:13:56.193Z,99390.09
2023-03-31T02:17:19.122Z,99384.24
2023-03-31T02:20:32.672Z,99381.94
2023-03-31T02:23:51.487Z,99381.54
2023-03-31T02:27:14.579Z,99372.48
2023-03-31T02:30:36.119Z,99372.18
2023-03-31T02:34:03.522Z,99365.71
2023-03-31T02:37:30.344Z,99367.09
2023-03-31T02:40:56.605Z,99366.52
2023-03-31T02:44:22.363Z,99362.69
2023-03-31T02:47:31.223Z,99361.36
2023-03-31T02:50:59.617Z,99359.77
2023-03-31T02:54:27.856Z,99356.56
2023-03-31T02:58:05.163Z,99350.41
2023-03-31T03:01:41.303Z,99350.14
2023-03-31T03:05:11.888Z,99345.85
2023-03-31T03:08:33.345Z,99344.80
2023-03-31T03:12:07.408Z,99337.98
2023-03-31T03:15:15.321Z,99333.66
2023-03-31T03:18:22.104Z,99333.08
2023-03-31T03:21:47.862Z,99330.89
2023-03-31T03:25:05.508Z,99328.20
2023-03-31T03:28:21.642Z,99332.61
2023-03-31T03:31:30.953Z,99327.66
2023-03-31T03:34:37.188Z,99325.16
2023-03-31T03:38:01.708Z,99321.80
2023-03-31T03:41:16.655Z,99323.37
2023-03-31T03:44:42.503Z,99318.98
2023-03-31T03:48:07.029Z,99317.10
2023-03-31T03:51:34.070Z,99315.54
2023-03-31T03:54:52.303Z,99315.92
2023-03-31T03:58:01.087Z,99315.95
2023-03-31T04:01:26.963Z,99312.05
2023-03-31T04:04:44.695Z,99309.60
2023-03-31T04:07:52.547Z,99311.66
2023-03-31T04:11:05.972Z,99305.73
2023-03-31T04:14:31.794Z,99303.57
2023-03-31T04:17:38.480Z,99302.11
2023-03-31T04:20:45.076Z,99300.59
2023-03-31T04:24:12.930Z,99295.88
2023-03-31T04:27:23.197Z,99289.14
2023-03-31T04:30:31.872Z,99283.42
2023-03-31T04:33:48.249Z,99285.31
2023-03-31T04:36:56.195Z,99282.27
2023-03-31T04:40:10.185Z,99276.09
2023-03-31T04:43:21.013Z,99274.80
2023-03-31T04:46:46.705Z,99270.02
2023-03-31T04:50:14.522Z,99265.80
2023-03-31T04:53:36.939Z,99260.90
2023-03-31T04:56:52.498Z,99254.67
2023-03-31T05:00:09.929Z,99256.77
2023-03-31T05:03:24.887Z,99252.82
2023-03-31T05:06:51.267Z,99248.77
2023-03-31T05:10:17.260Z,99246.82
2023-03-31T05:13:40.271Z,99243.37
2023-03-31T05:16:48.669Z,99245.02
2023-03-31T05:19:57.296Z,99242.50
2023-03-31T05:23:07.027Z,99243.05
2023-03-31T05:26:32.960Z,99247.10
2023-03-31T05:29:52.419Z,99242.44
2023-03-31T05:33:18.415Z,99243.42
2023-03-31T05:36:35.240Z,99240.48
2023-03-31T05:39:43.452Z,99234.60
2023-03-31T05:42:49.014Z,99232.75
2023-03-31T05:45:55.787Z,99231.84
2023-03-31T05:49:04.364Z,99233.45
2023-03-31T05:52:13.187Z,99228.60
2023-03-31T05:55:40.814Z,99229.77
2023-03-31T05:59:17.017Z,99233.90
2023-03-31T06:18:36.501Z,99221.35
2023-03-31T06:21:53.834Z,99227.80
2023-03-31T06:24:59.749Z,99219.27
2023-03-31T06:28:32.382Z,99218.40
2023-03-31T06:31:59.668Z,99209.42
2023-03-31T06:35:19.850Z,99208.91
2023-03-31T06:38:30.888Z,99205.73
2023-03-31T06:41:36.285Z,99205.88
2023-03-31T06:44:44.878Z,99205.35
2023-03-31T06:47:55.376Z,99206.34
2023-03-31T06:51:05.858Z,99203.21
2023-03-31T06:54:22.846Z,99195.12
2023-03-31T06:57:41.523Z,99190.54
2023-03-31T07:00:48.228Z,99194.84
2023-03-31T07:04:14.076Z,99201.91
2023-03-31T07:07:20.271Z,99201.08
2023-03-31T07:10:29.682Z,99201.00
2023-03-31T07:13:44.640Z,99194.32
2023-03-31T07:16:50.962Z,99195.19
2023-03-31T07:19:56.668Z,99196.80
2023-03-31T07:23:18.678Z,99194.89
2023-03-31T07:26:34.298Z,99192.42
2023-03-31T07:29:39.959Z,99194.20
2023-03-31T07:32:47.484Z,99198.16
2023-03-31T07:36:10.981Z,99191.02
2023-03-31T07:39:19.006Z,99187.04
2023-03-31T07:42:49.174Z,99179.41
2023-03-31T07:45:54.941Z,99172.34
2023-03-31T07:49:03.928Z,99172.03
2023-03-31T07:52:12.284Z,99174.70
2023-03-31T07:55:21.024Z,99183.60
2023-03-31T07:58:30.140Z,99177.80
2023-03-31T08:01:46.218Z,99180.40
2023-03-31T08:04:52.050Z,99170.79
2023-03-31T08:07:57.555Z,99161.97
2023-03-31T08:11:12.223Z,99159.44
2023-03-31T08:14:24.477Z,99160.74
2023-03-31T08:17:40.798Z,99159.14
2023-03-31T08:20:48.409Z,99158.60
2023-03-31T08:23:56.188Z,99161.89
2023-03-31T08:27:01.786Z,99160.02
2023-03-31T08:30:08.583Z,99156.37
2023-03-31T08:33:19.561Z,99143.67
2023-03-31T08:36:27.804Z,99141.58
2023-03-31T08:39:37.320Z,99145.60
2023-03-31T08:42:44.638Z,99142.83
2023-03-31T08:45:50.619Z,99129.44
2023-03-31T08:48:58.235Z,99124.45
2023-03-31T08:52:05.244Z,99123.80
2023-03-31T08:55:18.932Z,99125.91
2023-03-31T08:58:33.386Z,99123.34
2023-03-31T09:01:54.529Z,99124.35
2023-03-31T09:05:07.807Z,99124.95
2023-03-31T09:08:16.541Z,99123.95
2023-03-31T09:11:31.589Z,99115.45
2023-03-31T09:14:42.137Z,99109.58
2023-03-31T09:17:51.573Z,99109.98
2023-03-31T09:21:03.995Z,99109.65
2023-03-31T09:24:16.382Z,99106.06
2023-03-31T09:27:27.429Z,99105.81
2023-03-31T09:30:34.909Z,99094.55
2023-03-31T09:33:41.546Z,99097.31
2023-03-31T09:36:47.611Z,99092.50
2023-03-31T09:39:53.144Z,99082.29
2023-03-31T09:43:02.542Z,99079.63
2023-03-31T09:46:16.464Z,99071.59
2023-03-31T09:49:24.047Z,99063.86
2023-03-31T09:52:31.131Z,99064.99
2023-03-31T09:55:43.096Z,99068.55
2023-03-31T09:58:48.732Z,99060.27
2023-03-31T10:01:59.041Z,99054.44
2023-03-31T10:05:08.782Z,99053.43
2023-03-31T10:08:22.400Z,99050.89
2023-03-31T10:11:28.400Z,99040.56
2023-03-31T10:14:41.910Z,99041.41
2023-03-31T10:20:59.768Z,99029.58
2023-03-31T10:24:09.521Z,99028.96
2023-03-31T10:27:22.717Z,99021.61
2023-03-31T10:30:34.009Z,99017.17
2023-03-31T10:33:42.438Z,99004.67
2023-03-31T10:36:49.500Z,99000.52
2023-03-31T10:40:00.240Z,98996.44
2023-03-31T10:43:16.456Z,98992.37
2023-03-31T10:46:22.836Z,98986.61
2023-03-31T10:49:31.641Z,98982.96
2023-03-31T10:52:44.584Z,98976.52
2023-03-31T10:56:22.349Z,98969.30
2023-03-31T10:59:41.522Z,98969.25
2023-03-31T11:03:02.613Z,98965.02
2023-03-31T11:06:16.788Z,98964.58
2023-03-31T11:09:33.227Z,98968.09
2023-03-31T11:12:44.052Z,98959.25
2023-03-31T11:15:55.563Z,98956.96
2023-03-31T11:19:10.160Z,98954.94
2023-03-31T11:22:21.642Z,98961.59
2023-03-31T11:25:39.999Z,98962.69
2023-03-31T11:28:57.467Z,98957.52
2023-03-31T11:32:12.849Z,98949.40
2023-03-31T11:35:30.901Z,98943.73
2023-03-31T11:39:01.206Z,98938.90
2023-03-31T11:42:09.634Z,98935.27
2023-03-31T11:45:20.619Z,98926.86
2023-03-31T11:48:31.342Z,98925.59
2023-03-31T11:51:43.094Z,98920.85
2023-03-31T11:54:54.181Z,98910.80
2023-03-31T11:58:03.387Z,98906.77
2023-03-31T12:01:11.499Z,98897.80
2023-03-31T12:04:23.696Z,98890.55
2023-03-31T12:07:33.689Z,98883.02
2023-03-31T12:11:03.787Z,98873.90
2023-03-31T12:14:16.310Z,98872.44
2023-03-31T12:17:24.406Z,98867.94
2023-03-31T12:20:34.571Z,98861.90
2023-03-31T12:24:00.529Z,98854.39
2023-03-31T12:27:13.423Z,98852.08
2023-03-31T12:30:21.669Z,98852.38
2023-03-31T12:33:32.257Z,98841.60
2023-03-31T12:36:47.966Z,98835.27
2023-03-31T12:40:00.055Z,98832.23
2023-03-31T12:43:19.876Z,98825.27
2023-03-31T12:46:57.646Z,98824.55
2023-03-31T12:50:16.104Z,98819.70
2023-03-31T12:53:27.369Z,98821.77
2023-03-31T12:56:49.710Z,98816.39
2023-03-31T13:00:12.685Z,98813.15
2023-03-31T13:03:47.210Z,98805.16
2023-03-31T13:07:09.388Z,98795.67
2023-03-31T13:10:30.793Z,98795.52
2023-03-31T13:13:36.372Z,98795.25
2023-03-31T13:16:45.128Z,98786.96
2023-03-31T13:20:17.048Z,98776.68
2023-03-31T13:23:26.423Z,98774.48
2023-03-31T13:26:39.559Z,98768.27
2023-03-31T13:29:46.585Z,98760.79
2023-03-31T13:33:05.195Z,98753.77
2023-03-31T13:36:20.086Z,98746.27
2023-03-31T13:39:42.597Z,98741.61
2023-03-31T13:43:01.595Z,98735.12
2023-03-31T13:46:26.205Z,98727.71
2023-03-31T13:49:54.041Z,98719.73
2023-03-31T13:53:08.565Z,98719.11
2023-03-31T13:56:30.697Z,98714.68
2023-03-31T13:59:41.512Z,98713.11
2023-03-31T14:03:02.405Z,98707.19
2023-03-31T14:06:12.686Z,98697.40
2023-03-31T14:09:25.116Z,98696.71
2023-03-31T14:12:34.739Z,98692.15
2023-03-31T14:15:43.339Z,98693.83
2023-03-31T14:18:52.890Z,98684.65
2023-03-31T14:22:03.485Z,98679.61
2023-03-31T14:25:15.808Z,98676.70
2023-03-31T14:28:34.343Z,98670.84
2023-03-31T14:31:43.848Z,98666.60
2023-03-31T14:35:04.858Z,98664.16
2023-03-31T14:38:15.520Z,98655.26
2023-03-31T14:41:29.571Z,98656.37
2023-03-31T14:44:36.143Z,98647.30
2023-03-31T14:47:44.120Z,98647.50
2023-03-31T14:50:49.724Z,98644.67
2023-03-31T14:53:58.970Z,98647.14
2023-03-31T14:57:08.556Z,98639.81
2023-03-31T15:00:17.612Z,98634.30
2023-03-31T15:03:23.302Z,98633.74
2023-03-31T15:06:34.083Z,98630.84
2023-03-31T15:09:43.917Z,98626.11
2023-03-31T15:13:11.023Z,98624.38
2023-03-31T15:16:30.047Z,98625.38
2023-03-31T15:19:38.468Z,98629.31
2023-03-31T15:22:43.991Z,98627.31
2023-03-31T15:25:53.771Z,98627.28
2023-03-31T15:29:04.854Z,98624.59
2023-03-31T15:32:16.066Z,98625.56
2023-03-31T15:35:27.230Z,98624.55
2023-03-31T15:38:32.872Z,98624.02
2023-03-31T15:41:40.834Z,98626.63
2023-03-31T15:44:47.469Z,98623.95
2023-03-31T15:47:55.462Z,98623.10
2023-03-31T15:51:20.208Z,98619.96
2023-03-31T15:54:32.522Z,98617.66
2023-03-31T15:57:38.123Z,98617.56
2023-03-31T16:00:45.555Z,98617.33
2023-03-31T16:04:01.174Z,98614.74
2023-03-31T16:07:18.952Z,98614.09
2023-03-31T16:10:26.698Z,98608.74
2023-03-31T16:13:32.876Z,98606.61
2023-03-31T16:16:50.302Z,98601.15
2023-03-31T16:20:01.867Z,98603.85
2023-03-31T16:23:17.041Z,98601.09
2023-03-31T16:26:33.680Z,98600.83
2023-03-31T16:29:48.656Z,98600.05
2023-03-31T16:33:03.923Z,98595.45
2023-03-31T16:36:13.004Z,98594.88
2023-03-31T16:39:19.253Z,98592.68
2023-03-31T16:42:46.281Z,98590.52
2023-03-31T16:45:52.633Z,98591.27
2023-03-31T16:48:58.387Z,98597.77
2023-03-31T16:52:05.152Z,98600.11
2023-03-31T16:55:11.299Z,98598.42
2023-03-31T16:58:18.024Z,98590.73
2023-03-31T17:01:23.589Z,98591.89
2023-03-31T17:04:32.695Z,98588.51
2023-03-31T17:07:38.484Z,98583.73
2023-03-31T17:10:51.438Z,98583.13
2023-03-31T17:13:57.070Z,98582.66
2023-03-31T17:17:05.702Z,98582.00
2023-03-31T17:20:12.205Z,98582.02
2023-03-31T17:23:17.988Z,98585.44
2023-03-31T17:26:24.853Z,98584.19
2023-03-31T17:29:30.687Z,98579.57
2023-03-31T17:32:38.797Z,98577.13
2023-03-31T17:35:44.527Z,98571.25
2023-03-31T17:38:54.249Z,98573.86
2023-03-31T17:41:59.807Z,98573.30
2023-03-31T17:45:05.611Z,98571.58
2023-03-31T17:48:11.835Z,98568.91
2023-03-31T17:51:25.031Z,98569.60
2023-03-31T17:54:30.569Z,98568.41
2023-03-31T17:57:40.331Z,98569.45
2023-03-31T18:00:48.566Z,98570.33
2023-03-31T18:03:59.551Z,98570.27
2023-03-31T18:07:05.661Z,98567.06
2023-03-31T18:10:18.670Z,98569.19
2023-03-31T18:13:24.431Z,98570.38
2023-03-31T18:16:30.522Z,98569.06
2023-03-31T18:19:36.434Z,98570.20
2023-03-31T18:22:42.152Z,98572.38
2023-03-31T18:25:50.328Z,98574.41
2023-03-31T18:29:16.454Z,98574.55
2023-03-31T18:32:33.120Z,98575.39
2023-03-31T18:35:39.120Z,98575.55
2023-03-31T18:38:44.815Z,98578.05
2023-03-31T18:41:50.831Z,98578.87
2023-03-31T18:44:56.727Z,98579.02
2023-03-31T18:48:04.966Z,98577.61
2023-03-31T18:51:30.397Z,98582.77
2023-03-31T18:54:50.167Z,98582.98
2023-03-31T18:58:06.716Z,98581.71
2023-03-31T19:01:14.519Z,98588.55
2023-03-31T19:04:20.263Z,98587.65
2023-03-31T19:07:28.003Z,98588.80
2023-03-31T19:10:33.713Z,98587.58
2023-03-31T19:13:40.221Z,98589.95
2023-03-31T19:16:45.902Z,98587.48
2023-03-31T19:19:53.997Z,98584.34
2023-03-31T19:23:08.491Z,98589.39
2023-03-31T19:26:18.249Z,98589.27
2023-03-31T19:29:36.462Z,98583.30
2023-03-31T19:32:42.691Z,98578.94
2023-03-31T19:35:48.822Z,98578.30
2023-03-31T19:38:54.427Z,98578.08
2023-03-31T19:42:03.221Z,98575.02
2023-03-31T19:45:09.389Z,98575.63
2023-03-31T19:48:14.849Z,98571.86
2023-03-31T19:51:22.474Z,98570.29
2023-03-31T19:54:28.786Z,98568.13
2023-03-31T19:57:36.446Z,98571.83
2023-03-31T20:00:42.034Z,98571.39
2023-03-31T20:03:53.198Z,98565.85
2023-03-31T20:06:59.241Z,98561.33
2023-03-31T20:10:08.056Z,98559.36
2023-03-31T20:13:15.915Z,98559.36
2023-03-31T20:16:42.112Z,98559.34
2023-03-31T20:19:49.964Z,98559.54
2023-03-31T20:22:59.863Z,98561.75
2023-03-31T20:26:08.994Z,98560.31
2023-03-31T20:29:17.198Z,98562.89
2023-03-31T20:32:25.731Z,98565.84
2023-03-31T20:35:34.098Z,98569.35
2023-03-31T20:38:51.238Z,98573.29
2023-03-31T20:41:59.349Z,98576.52
2023-03-31T20:45:05.256Z,98577.17
2023-03-31T20:48:10.971Z,98574.27
2023-03-31T20:51:17.387Z,98575.30
2023-03-31T20:54:23.035Z,98574.05
2023-03-31T20:57:28.693Z,98575.52
2023-03-31T21:00:34.186Z,98571.77
2023-03-31T21:03:39.781Z,98571.54
2023-03-31T21:06:46.457Z,98570.45
2023-03-31T21:09:52.201Z,98572.06
2023-03-31T21:13:10.113Z,98573.90
2023-03-31T21:16:18.918Z,98573.52
2023-03-31T21:19:24.376Z,98573.69
2023-03-31T21:22:29.946Z,98577.43
2023-03-31T21:25:35.387Z,98576.46
2023-03-31T21:28:44.424Z,98574.71
2023-03-31T21:31:53.379Z,98576.77
2023-03-31T21:34:59.044Z,98576.92
2023-03-31T21:38:04.815Z,98577.61
2023-03-31T21:41:18.491Z,98578.30
2023-03-31T21:44:26.353Z,98577.96
2023-03-31T21:47:31.796Z,98575.45
2023-03-31T21:50:40.785Z,98575.39
2023-03-31T21:53:47.279Z,98573.61
2023-03-31T21:57:00.027Z,98572.24
2023-03-31T22:00:06.321Z,98574.98
2023-03-31T22:03:26.588Z,98570.69
2023-03-31T22:06:37.571Z,98573.85
2023-03-31T22:09:53.696Z,98574.89
2023-03-31T22:12:59.253Z,98576.80
2023-03-31T22:16:04.818Z,98578.61
2023-03-31T22:19:14.188Z,98580.39
2023-03-31T22:22:23.991Z,98583.39
2023-03-31T22:25:32.337Z,98580.05
2023-03-31T22:28:38.294Z,98579.39
2023-03-31T22:31:46.116Z,98581.49
2023-03-31T22:35:01.409Z,98582.45
2023-03-31T22:38:12.790Z,98581.25
2023-03-31T22:41:27.528Z,98581.75
2023-03-31T22:44:32.856Z,98580.86
2023-03-31T22:47:42.213Z,98579.08
2023-03-31T22:50:50.448Z,98582.12
2023-03-31T22:54:00.467Z,98579.24
2023-03-31T22:57:08.500Z,98579.20
2023-03-31T23:00:18.192Z,98578.16
2023-03-31T23:03:26.468Z,98580.00
2023-03-31T23:06:36.175Z,98584.04
2023-03-31T23:09:45.498Z,98581.95
2023-03-31T23:13:02.210Z,98581.70
2023-03-31T23:16:11.661Z,98580.98
2023-03-31T23:19:18.492Z,98582.79
2023-03-31T23:22:26.952Z,98582.54
2023-03-31T23:25:36.334Z,98585.83
2023-03-31T23:28:45.494Z,98580.70
2023-03-31T23:31:54.372Z,98585.52
2023-03-31T23:34:59.897Z,98583.64
2023-03-31T23:38:17.461Z,98582.88
2023-03-31T23:41:26.609Z,98580.96
2023-03-31T23:44:37.307Z,98580.19
2023-03-31T23:47:45.086Z,98580.77
2023-03-31T23:50:53.129Z,98580.61
2023-03-31T23:54:01.238Z,98582.23
2023-03-31T23:57:26.807Z,98578.80
